Time;durP1;ratioP1;P1;durP2;ratioP2;P2;SDS_P1;SDS_P2;PMS_P1;PMS_P2;Temp;Humidity;BMP_temperature;BMP_pressure;BME280_temperature;BME280_humidity;BME280_pressure;Samples;Min_cycle;Max_cycle;Signal;HPM_P1;HPM_P2
2022/10/23 00:00:09;;;;;;;3.07;1.90;;;15.80;93.70;;;;;;4965184;28;20742;-80
2022/10/23 00:02:34;;;;;;;3.17;1.90;;;15.70;93.70;;;;;;4977924;28;20041;-80
2022/10/23 00:05:00;;;;;;;3.50;1.90;;;15.70;93.80;;;;;;4982782;28;20487;-80
2022/10/23 00:07:25;;;;;;;3.47;1.83;;;15.70;93.80;;;;;;4985580;28;20084;-80
2022/10/23 00:09:51;;;;;;;3.37;1.90;;;15.70;93.90;;;;;;4985623;28;20386;-80
2022/10/23 00:12:17;;;;;;;4.00;1.98;;;15.70;94.00;;;;;;4975933;28;20254;-80
2022/10/23 00:14:42;;;;;;;5.47;2.10;;;15.60;94.00;;;;;;4973403;28;20034;-80
2022/10/23 00:17:11;;;;;;;3.93;1.90;;;15.60;94.10;;;;;;4954150;28;20697;-81
2022/10/23 00:19:36;;;;;;;3.08;1.60;;;15.60;94.10;;;;;;4992476;28;20398;-80
2022/10/23 00:22:02;;;;;;;3.40;1.80;;;15.60;94.20;;;;;;5001883;28;20155;-81
2022/10/23 00:24:28;;;;;;;3.87;1.87;;;15.60;94.60;;;;;;4973947;28;20065;-80
2022/10/23 00:26:53;;;;;;;4.03;1.80;;;15.60;94.30;;;;;;4986530;28;20103;-81
2022/10/23 00:29:19;;;;;;;5.20;1.93;;;15.60;94.30;;;;;;4969823;28;20148;-81
2022/10/23 00:31:45;;;;;;;3.20;1.80;;;15.60;94.40;;;;;;4975094;28;20030;-80
2022/10/23 00:34:10;;;;;;;2.47;1.60;;;15.50;94.50;;;;;;4957117;28;20084;-80
2022/10/23 00:36:36;;;;;;;3.63;1.80;;;15.50;94.50;;;;;;4997632;28;20022;-80
2022/10/23 00:39:03;;;;;;;3.60;1.80;;;15.50;94.60;;;;;;4984102;28;20243;-80
2022/10/23 00:41:31;;;;;;;2.75;1.60;;;15.50;94.70;;;;;;4988215;28;20030;-80
2022/10/23 00:44:05;;;;;;;3.58;1.60;;;15.50;94.60;;;;;;5008172;28;20466;-80
2022/10/23 00:46:31;;;;;;;5.07;1.75;;;15.60;94.70;;;;;;4975204;28;20022;-81
2022/10/23 00:48:57;;;;;;;3.28;1.90;;;15.60;94.70;;;;;;4977557;28;20597;-81
2022/10/23 00:51:26;;;;;;;2.40;1.40;;;15.60;94.70;;;;;;4978224;28;20038;-80
2022/10/23 00:53:56;;;;;;;5.20;1.52;;;15.50;94.60;;;;;;4983890;28;20033;-81
2022/10/23 00:56:21;;;;;;;3.47;1.63;;;15.50;94.70;;;;;;4959392;28;20093;-80
2022/10/23 00:58:47;;;;;;;4.70;1.73;;;15.50;94.70;;;;;;5001123;28;20113;-81
2022/10/23 01:01:17;;;;;;;4.55;1.70;;;15.50;94.80;;;;;;4976966;28;20037;-81
2022/10/23 01:03:43;;;;;;;5.53;2.00;;;15.50;94.90;;;;;;4985457;28;20033;-80
2022/10/23 01:06:26;;;;;;;5.47;1.80;;;15.50;95.00;;;;;;4978746;28;20030;-81
2022/10/23 01:09:05;;;;;;;2.78;1.70;;;15.40;95.20;;;;;;4986421;28;20035;-81
2022/10/23 01:11:51;;;;;;;3.45;1.88;;;15.40;95.20;;;;;;4982822;28;20142;-81
2022/10/23 01:14:53;;;;;;;3.40;1.40;;;15.50;95.20;;;;;;4984233;28;20542;-81
2022/10/23 01:17:36;;;;;;;2.80;1.60;;;15.40;95.30;;;;;;4949263;28;20506;-81
2022/10/23 01:20:27;;;;;;;3.75;1.88;;;15.40;95.30;;;;;;4961638;28;20030;-80
2022/10/23 01:23:24;;;;;;;3.90;1.73;;;15.40;95.30;;;;;;4984064;28;20646;-81
2022/10/23 01:26:09;;;;;;;3.63;1.45;;;15.40;95.30;;;;;;4983626;28;20042;-81
2022/10/23 01:28:43;;;;;;;3.43;1.73;;;15.40;95.40;;;;;;4981596;28;20398;-81
2022/10/23 01:31:16;;;;;;;3.83;1.80;;;15.40;95.40;;;;;;4970687;28;20801;-81
2022/10/23 01:33:50;;;;;;;3.33;1.70;;;15.40;95.50;;;;;;4995225;28;20127;-81
2022/10/23 01:36:19;;;;;;;3.15;1.80;;;15.40;95.50;;;;;;4955954;28;20141;-81
2022/10/23 01:38:56;;;;;;;2.95;1.67;;;15.40;95.60;;;;;;4991517;28;20026;-81
2022/10/23 01:41:38;;;;;;;2.17;1.50;;;15.40;95.60;;;;;;4983196;28;20034;-80
2022/10/23 01:44:13;;;;;;;3.15;1.67;;;15.40;95.60;;;;;;4977517;28;20291;-80
2022/10/23 01:46:39;;;;;;;2.20;1.40;;;15.40;95.70;;;;;;4988543;28;20038;-81
2022/10/23 01:49:09;;;;;;;2.92;1.60;;;15.40;95.80;;;;;;4985779;28;20022;-82
2022/10/23 01:51:38;;;;;;;3.35;1.70;;;15.40;95.90;;;;;;4975833;28;20030;-81
2022/10/23 01:54:08;;;;;;;3.43;1.30;;;15.50;95.90;;;;;;4992802;28;20578;-81
2022/10/23 01:56:37;;;;;;;2.85;1.40;;;15.50;96.00;;;;;;4997587;28;20034;-81
2022/10/23 01:59:09;;;;;;;3.30;1.63;;;15.50;96.10;;;;;;4956199;28;20029;-81
2022/10/23 02:01:38;;;;;;;3.47;1.50;;;15.50;96.10;;;;;;4987404;28;20010;-81
2022/10/23 02:04:09;;;;;;;4.65;1.70;;;15.50;96.10;;;;;;4964334;28;20030;-81
2022/10/23 02:06:35;;;;;;;4.00;1.57;;;15.50;96.10;;;;;;4990959;28;20517;-81
2022/10/23 02:09:00;;;;;;;4.07;1.50;;;15.50;96.10;;;;;;4988571;28;20156;-81
2022/10/23 02:11:26;;;;;;;2.85;1.40;;;15.50;96.50;;;;;;4997715;28;20049;-81
2022/10/23 02:14:07;;;;;;;4.50;1.60;;;15.50;96.20;;;;;;4969455;28;20038;-81
2022/10/23 02:16:49;;;;;;;3.22;1.60;;;15.50;96.20;;;;;;4971274;28;20112;-81
2022/10/23 02:19:20;;;;;;;3.42;1.60;;;15.50;96.20;;;;;;4976398;28;20022;-81
2022/10/23 02:21:58;;;;;;;4.50;1.70;;;15.60;96.30;;;;;;4960716;28;20033;-81
2022/10/23 02:24:35;;;;;;;3.35;1.42;;;15.50;96.30;;;;;;4976582;28;20033;-80
2022/10/23 02:27:07;;;;;;;3.22;1.60;;;15.50;96.30;;;;;;4994580;28;20168;-81
2022/10/23 02:30:00;;;;;;;3.55;1.60;;;15.50;96.40;;;;;;4992958;28;20026;-81
2022/10/23 02:32:27;;;;;;;3.33;1.50;;;15.50;96.50;;;;;;4989314;28;20054;-81
2022/10/23 02:34:53;;;;;;;2.27;1.40;;;15.50;96.50;;;;;;4977854;28;20125;-81
2022/10/23 02:37:19;;;;;;;3.03;1.50;;;15.50;96.60;;;;;;4986758;28;20021;-81
2022/10/23 02:39:45;;;;;;;3.95;1.70;;;15.50;96.60;;;;;;4985404;28;20044;-81
2022/10/23 02:42:30;;;;;;;2.88;1.48;;;15.50;96.60;;;;;;4986757;28;20053;-81
2022/10/23 02:45:07;;;;;;;3.87;1.37;;;15.50;96.70;;;;;;4985052;28;20337;-81
2022/10/23 02:47:45;;;;;;;3.58;1.50;;;15.50;96.70;;;;;;4980987;28;20482;-81
2022/10/23 02:50:30;;;;;;;2.47;1.33;;;15.50;96.70;;;;;;4977261;28;20252;-81
2022/10/23 02:53:24;;;;;;;3.38;1.45;;;15.50;96.70;;;;;;4966469;28;20172;-81
2022/10/23 02:56:24;;;;;;;3.03;1.35;;;15.50;96.70;;;;;;4976362;28;20064;-81
2022/10/23 02:59:15;;;;;;;3.60;1.43;;;15.50;96.70;;;;;;4968882;28;20112;-81
2022/10/23 03:02:01;;;;;;;2.45;1.35;;;15.40;96.70;;;;;;4982544;28;20026;-81
2022/10/23 03:04:28;;;;;;;2.03;1.20;;;15.40;96.70;;;;;;4978153;28;20029;-81
2022/10/23 03:06:54;;;;;;;3.00;1.40;;;15.40;96.80;;;;;;4993726;28;20085;-81
2022/10/23 03:09:20;;;;;;;1.75;1.30;;;15.40;96.80;;;;;;4981868;28;20061;-81
2022/10/23 03:11:45;;;;;;;2.63;1.20;;;15.40;96.80;;;;;;4985579;28;20245;-81
2022/10/23 03:14:13;;;;;;;2.60;1.20;;;15.40;96.90;;;;;;4997974;28;20291;-81
2022/10/23 03:16:38;;;;;;;2.95;1.30;;;15.40;96.90;;;;;;4987361;28;20062;-81
2022/10/23 03:19:04;;;;;;;2.78;1.20;;;15.40;96.90;;;;;;4984447;28;20117;-81
2022/10/23 03:21:30;;;;;;;2.20;1.40;;;15.40;96.90;;;;;;4979712;28;20022;-81
2022/10/23 03:23:55;;;;;;;3.20;1.30;;;15.40;97.00;;;;;;4981247;28;20619;-81
2022/10/23 03:26:21;;;;;;;2.38;1.30;;;15.40;97.00;;;;;;4998520;28;20041;-81
2022/10/23 03:28:46;;;;;;;3.17;1.30;;;15.40;97.00;;;;;;4968990;28;20022;-81
2022/10/23 03:31:12;;;;;;;2.75;1.27;;;15.40;97.00;;;;;;4979921;28;20038;-81
2022/10/23 03:33:38;;;;;;;1.97;1.23;;;15.40;97.00;;;;;;4981023;28;20398;-81
2022/10/23 03:36:04;;;;;;;1.90;1.20;;;15.40;97.00;;;;;;4947504;28;20117;-81
2022/10/23 03:38:30;;;;;;;2.25;1.35;;;15.40;97.10;;;;;;4981521;28;20061;-80
2022/10/23 03:40:56;;;;;;;2.13;1.30;;;15.30;97.10;;;;;;4985932;28;20030;-81
2022/10/23 03:43:22;;;;;;;2.77;1.30;;;15.30;97.10;;;;;;4976006;28;20030;-81
2022/10/23 03:45:47;;;;;;;2.75;1.40;;;15.30;97.10;;;;;;4978212;28;20029;-81
2022/10/23 03:48:13;;;;;;;2.40;1.33;;;15.30;97.20;;;;;;4981128;28;20022;-81
2022/10/23 03:50:39;;;;;;;2.33;1.30;;;15.30;97.20;;;;;;4970667;28;20179;-81
2022/10/23 03:53:05;;;;;;;2.63;1.20;;;15.40;97.30;;;;;;4960259;28;20614;-81
2022/10/23 03:55:31;;;;;;;2.30;1.30;;;15.30;97.60;;;;;;4973090;28;20474;-81
2022/10/23 03:57:56;;;;;;;3.47;1.30;;;15.30;97.30;;;;;;4988283;28;20269;-81
2022/10/23 04:00:22;;;;;;;3.27;1.37;;;15.30;97.30;;;;;;4995736;28;20084;-81
2022/10/23 04:02:48;;;;;;;1.90;1.20;;;15.30;97.40;;;;;;4959319;28;20109;-80
2022/10/23 04:05:14;;;;;;;3.40;1.20;;;15.30;97.40;;;;;;4976495;28;20022;-81
2022/10/23 04:07:39;;;;;;;2.00;1.10;;;15.30;97.40;;;;;;4975022;28;20324;-80
2022/10/23 04:10:05;;;;;;;2.23;1.30;;;15.30;97.40;;;;;;4978280;28;20048;-81
2022/10/23 04:12:31;;;;;;;2.30;1.13;;;15.30;97.50;;;;;;4984372;28;20296;-81
2022/10/23 04:14:57;;;;;;;3.13;1.20;;;15.30;97.50;;;;;;4992552;28;20232;-81
2022/10/23 04:17:22;;;;;;;2.53;1.13;;;15.30;97.50;;;;;;4975594;28;20101;-81
2022/10/23 04:19:48;;;;;;;2.25;1.20;;;15.30;97.50;;;;;;5000002;28;20057;-81
2022/10/23 04:22:14;;;;;;;3.13;1.23;;;15.20;97.50;;;;;;4958297;28;20057;-81
2022/10/23 04:24:44;;;;;;;1.80;1.10;;;15.30;97.60;;;;;;4970529;28;20113;-80
2022/10/23 04:27:09;;;;;;;2.83;1.10;;;15.30;97.60;;;;;;4979265;28;20391;-80
2022/10/23 04:29:35;;;;;;;2.95;1.10;;;15.20;97.60;;;;;;4988592;28;20064;-81
2022/10/23 04:32:01;;;;;;;1.93;1.07;;;15.20;97.60;;;;;;4976288;28;21521;-81
2022/10/23 04:34:26;;;;;;;1.92;1.17;;;15.20;97.60;;;;;;4969776;28;20044;-81
2022/10/23 04:36:52;;;;;;;2.13;1.10;;;15.30;97.70;;;;;;4969049;28;20168;-80
2022/10/23 04:39:18;;;;;;;1.77;1.10;;;15.20;97.60;;;;;;4986855;28;20092;-80
2022/10/23 04:41:43;;;;;;;2.05;1.00;;;15.20;97.60;;;;;;4979224;28;20113;-81
2022/10/23 04:44:09;;;;;;;2.53;1.13;;;15.20;97.70;;;;;;4976982;28;20057;-81
2022/10/23 04:46:35;;;;;;;2.22;1.17;;;15.20;97.70;;;;;;4987170;28;20111;-81
2022/10/23 04:49:00;;;;;;;2.60;1.07;;;15.20;97.70;;;;;;4962669;28;20030;-80
2022/10/23 04:51:26;;;;;;;1.75;1.10;;;15.20;97.70;;;;;;4986640;28;20338;-81
2022/10/23 04:53:51;;;;;;;2.60;1.17;;;15.20;97.70;;;;;;4957544;28;20133;-81
2022/10/23 04:56:17;;;;;;;2.28;1.00;;;15.10;97.80;;;;;;4979037;28;20357;-81
2022/10/23 04:58:42;;;;;;;1.87;1.10;;;15.10;97.90;;;;;;4998295;28;20518;-81
2022/10/23 05:01:12;;;;;;;4.70;1.10;;;15.10;97.90;;;;;;4974948;28;20079;-81
2022/10/23 05:03:38;;;;;;;1.95;1.00;;;15.10;98.00;;;;;;4985946;28;20109;-80
2022/10/23 05:06:04;;;;;;;1.92;1.10;;;15.10;98.00;;;;;;4980448;28;20036;-81
2022/10/23 05:08:30;;;;;;;2.15;0.85;;;15.10;98.10;;;;;;4968329;28;20025;-81
2022/10/23 05:10:55;;;;;;;2.40;1.33;;;15.20;98.20;;;;;;4968922;28;20543;-81
2022/10/23 05:13:21;;;;;;;1.92;0.98;;;15.10;98.20;;;;;;4977598;28;20205;-81
2022/10/23 05:15:52;;;;;;;1.70;1.10;;;15.20;98.30;;;;;;4988221;28;20030;-81
2022/10/23 05:18:30;;;;;;;2.15;1.10;;;15.20;98.30;;;;;;4987949;28;20022;-81
2022/10/23 05:21:05;;;;;;;2.25;1.00;;;15.20;98.40;;;;;;4958298;28;20025;-80
2022/10/23 05:23:34;;;;;;;2.33;0.98;;;15.10;98.70;;;;;;4993573;28;20018;-81
2022/10/23 05:26:02;;;;;;;2.50;1.17;;;15.20;98.40;;;;;;4960708;28;20293;-81
2022/10/23 05:28:28;;;;;;;2.20;1.13;;;15.20;98.40;;;;;;4983868;28;20072;-82
2022/10/23 05:30:54;;;;;;;2.65;1.20;;;15.20;98.40;;;;;;4991939;28;20484;-81
2022/10/23 05:33:20;;;;;;;2.40;1.10;;;15.20;98.40;;;;;;4966740;28;20026;-81
2022/10/23 05:35:46;;;;;;;1.57;1.00;;;15.20;98.50;;;;;;4979234;28;20030;-81
2022/10/23 05:38:13;;;;;;;2.25;1.10;;;15.20;98.50;;;;;;4988406;28;20568;-81
2022/10/23 05:40:38;;;;;;;1.73;1.00;;;15.20;98.50;;;;;;4954041;28;20222;-81
2022/10/23 05:43:04;;;;;;;2.70;1.00;;;15.20;98.60;;;;;;4994564;28;20025;-81
2022/10/23 05:45:30;;;;;;;1.33;1.00;;;15.20;98.60;;;;;;4991028;28;20041;-81
2022/10/23 05:47:55;;;;;;;2.93;1.20;;;15.20;98.60;;;;;;4988519;28;20026;-81
2022/10/23 05:50:21;;;;;;;2.13;1.00;;;15.20;98.70;;;;;;4984732;28;20034;-81
2022/10/23 05:52:47;;;;;;;2.07;1.10;;;15.20;98.70;;;;;;4995027;28;20026;-81
2022/10/23 05:55:14;;;;;;;2.25;1.10;;;15.30;98.80;;;;;;4967472;28;20330;-80
2022/10/23 05:57:40;;;;;;;2.22;1.02;;;15.30;98.80;;;;;;4980353;28;20188;-81
2022/10/23 06:00:06;;;;;;;2.58;1.17;;;15.30;98.80;;;;;;4999257;28;20061;-81
2022/10/23 06:02:32;;;;;;;1.97;1.00;;;15.30;98.80;;;;;;4976002;28;20045;-81
2022/10/23 06:04:57;;;;;;;1.65;1.02;;;15.30;98.90;;;;;;4963974;28;20018;-81
2022/10/23 06:07:24;;;;;;;2.30;1.10;;;15.30;98.80;;;;;;4981822;28;20056;-81
2022/10/23 06:09:50;;;;;;;1.63;1.00;;;15.30;98.80;;;;;;4945299;28;20034;-80
2022/10/23 06:12:16;;;;;;;1.95;1.00;;;15.30;98.90;;;;;;4964652;28;20525;-81
2022/10/23 06:14:41;;;;;;;2.37;1.20;;;15.30;98.90;;;;;;4993539;28;20022;-81
2022/10/23 06:17:07;;;;;;;2.10;1.00;;;15.30;98.90;;;;;;4976408;28;20565;-80
2022/10/23 06:19:32;;;;;;;1.90;1.00;;;15.30;99.00;;;;;;4981662;28;20277;-80
2022/10/23 06:21:58;;;;;;;2.33;1.20;;;15.30;99.00;;;;;;4985209;28;20238;-80
2022/10/23 06:24:24;;;;;;;3.45;1.17;;;15.30;99.00;;;;;;4994856;28;20605;-81
2022/10/23 06:26:50;;;;;;;2.20;1.20;;;15.30;99.00;;;;;;4957668;28;20069;-80
2022/10/23 06:29:15;;;;;;;1.40;1.00;;;15.30;99.00;;;;;;4999461;28;20116;-81
2022/10/23 06:31:41;;;;;;;1.90;1.13;;;15.30;99.00;;;;;;4995902;28;20425;-81
2022/10/23 06:34:11;;;;;;;1.35;0.93;;;15.30;99.00;;;;;;4985283;28;20295;-81
2022/10/23 06:36:37;;;;;;;1.85;1.00;;;15.30;99.10;;;;;;4994072;28;20033;-81
2022/10/23 06:39:04;;;;;;;2.65;1.23;;;15.30;99.10;;;;;;4972193;28;20049;-81
2022/10/23 06:41:29;;;;;;;2.47;1.20;;;15.30;99.20;;;;;;4958658;28;20045;-81
2022/10/23 06:43:55;;;;;;;1.98;0.93;;;15.20;99.20;;;;;;4963526;28;20038;-81
2022/10/23 06:46:21;;;;;;;2.20;1.10;;;15.20;99.20;;;;;;4972265;28;20383;-81
2022/10/23 06:48:46;;;;;;;2.55;1.00;;;15.30;99.30;;;;;;4984375;28;20026;-81
2022/10/23 06:51:16;;;;;;;2.93;1.20;;;15.30;99.40;;;;;;4991748;28;20042;-80
2022/10/23 06:53:42;;;;;;;1.98;1.10;;;15.30;99.40;;;;;;4983262;28;20080;-81
2022/10/23 06:56:08;;;;;;;2.70;1.10;;;15.30;99.50;;;;;;4960613;28;20057;-81
2022/10/23 06:58:36;;;;;;;1.65;1.05;;;15.30;99.50;;;;;;4975236;28;20192;-81
2022/10/23 07:01:04;;;;;;;1.93;1.07;;;15.30;99.50;;;;;;4986402;28;20121;-81
2022/10/23 07:03:30;;;;;;;1.85;1.00;;;15.30;99.60;;;;;;4973686;28;20140;-81
2022/10/23 07:06:00;;;;;;;1.83;1.08;;;15.30;99.70;;;;;;4995192;28;20040;-81
2022/10/23 07:08:25;;;;;;;1.30;1.00;;;15.40;99.80;;;;;;4987139;28;20320;-81
2022/10/23 07:10:51;;;;;;;2.00;1.13;;;15.40;99.90;;;;;;4975269;28;20045;-81
2022/10/23 07:13:16;;;;;;;1.88;1.20;;;15.40;99.90;;;;;;4960350;28;20965;-80
2022/10/23 07:15:43;;;;;;;1.87;1.00;;;15.50;99.90;;;;;;4987538;28;20026;-81
2022/10/23 07:18:13;;;;;;;2.42;1.10;;;15.50;99.90;;;;;;4985231;28;20018;-81
2022/10/23 07:20:40;;;;;;;2.00;1.10;;;15.60;99.90;;;;;;4969961;28;20035;-81
2022/10/23 07:23:06;;;;;;;3.35;1.17;;;15.60;99.90;;;;;;4985473;28;20025;-81
2022/10/23 07:25:32;;;;;;;1.70;1.10;;;15.60;99.90;;;;;;4981108;28;20219;-81
2022/10/23 07:27:58;;;;;;;2.13;1.10;;;15.60;99.90;;;;;;4959627;28;20029;-80
2022/10/23 07:30:24;;;;;;;1.33;1.10;;;15.70;99.90;;;;;;4968636;28;20037;-81
2022/10/23 07:32:49;;;;;;;1.30;1.10;;;15.80;99.90;;;;;;4974313;28;20053;-81
2022/10/23 07:35:16;;;;;;;2.30;1.10;;;15.80;99.90;;;;;;4988712;28;20029;-81
2022/10/23 07:37:42;;;;;;;1.95;1.10;;;15.80;99.90;;;;;;4980713;28;20033;-81
2022/10/23 07:40:08;;;;;;;3.33;1.30;;;15.90;99.90;;;;;;4983691;28;20026;-81
2022/10/23 07:42:34;;;;;;;1.83;1.13;;;15.90;99.90;;;;;;5003473;28;20023;-81
2022/10/23 07:45:00;;;;;;;1.88;1.20;;;16.00;99.90;;;;;;4954514;28;20486;-81
2022/10/23 07:47:25;;;;;;;1.67;1.13;;;16.00;99.90;;;;;;4994714;28;20715;-81
2022/10/23 07:49:51;;;;;;;2.50;1.10;;;16.10;99.90;;;;;;4987013;28;20053;-81
2022/10/23 07:52:17;;;;;;;1.70;1.20;;;16.20;99.90;;;;;;4971394;28;20018;-81
2022/10/23 07:54:42;;;;;;;1.97;1.10;;;16.20;99.90;;;;;;4978914;28;20049;-81
2022/10/23 07:57:10;;;;;;;2.23;1.20;;;16.30;99.90;;;;;;4937227;28;20287;-81
2022/10/23 07:59:37;;;;;;;2.55;1.20;;;16.30;99.90;;;;;;4954487;28;20041;-81
2022/10/23 08:02:03;;;;;;;2.35;1.15;;;16.40;99.90;;;;;;4972239;28;20029;-81
2022/10/23 08:04:28;;;;;;;2.17;1.20;;;16.40;99.90;;;;;;4982622;28;20600;-81
2022/10/23 08:06:55;;;;;;;1.85;1.10;;;16.40;99.90;;;;;;4994654;28;20133;-81
2022/10/23 08:09:21;;;;;;;4.70;1.33;;;16.50;99.90;;;;;;4976125;28;20322;-81
2022/10/23 08:11:46;;;;;;;2.97;1.17;;;16.50;99.90;;;;;;4981662;28;20128;-81
2022/10/23 08:14:12;;;;;;;2.33;1.30;;;16.60;99.90;;;;;;4966030;28;20551;-81
2022/10/23 08:16:38;;;;;;;2.93;1.20;;;16.60;99.90;;;;;;4970827;28;20515;-81
2022/10/23 08:19:06;;;;;;;1.75;1.20;;;16.60;99.90;;;;;;4950423;28;20042;-82
2022/10/23 08:21:32;;;;;;;1.88;1.23;;;16.70;99.90;;;;;;4970217;28;20041;-82
2022/10/23 08:23:59;;;;;;;1.87;1.20;;;16.70;99.90;;;;;;4982233;28;20410;-81
2022/10/23 08:26:28;;;;;;;2.20;1.17;;;16.70;99.90;;;;;;4975328;28;20089;-81
2022/10/23 08:28:54;;;;;;;1.92;1.10;;;16.80;99.90;;;;;;4983082;28;20026;-81
2022/10/23 08:31:21;;;;;;;2.65;1.20;;;16.80;99.90;;;;;;4980697;28;20807;-82
2022/10/23 08:33:47;;;;;;;1.92;1.00;;;16.90;99.90;;;;;;4948316;28;20030;-81
2022/10/23 08:36:26;;;;;;;2.30;1.10;;;16.90;99.90;;;;;;4979325;28;20040;-81
2022/10/23 08:38:54;;;;;;;2.22;1.08;;;17.00;99.90;;;;;;4982791;28;20023;-81
2022/10/23 08:41:41;;;;;;;2.10;1.17;;;17.00;99.90;;;;;;4977711;28;20189;-81
2022/10/23 08:44:32;;;;;;;3.50;1.47;;;17.00;99.90;;;;;;4990031;28;20504;-81
2022/10/23 08:47:12;;;;;;;1.90;1.20;;;17.10;99.90;;;;;;4973411;28;20548;-81
2022/10/23 08:49:52;;;;;;;2.60;1.23;;;17.10;99.90;;;;;;4942474;28;20242;-82
2022/10/23 08:52:39;;;;;;;1.88;1.20;;;17.10;99.90;;;;;;4974533;28;20403;-82
2022/10/23 08:55:24;;;;;;;2.47;1.27;;;17.20;99.90;;;;;;4976738;28;20042;-82
2022/10/23 08:58:05;;;;;;;1.80;1.10;;;17.20;99.90;;;;;;4979285;28;20760;-82
2022/10/23 09:00:32;;;;;;;1.70;1.00;;;17.20;99.90;;;;;;4960026;28;20019;-81
2022/10/23 09:03:01;;;;;;;1.90;1.10;;;17.30;99.90;;;;;;4979337;28;20133;-81
2022/10/23 09:05:31;;;;;;;2.92;1.30;;;17.40;99.90;;;;;;4948989;28;20060;-82
2022/10/23 09:08:17;;;;;;;2.65;1.02;;;17.40;99.90;;;;;;4969948;28;20041;-82
2022/10/23 09:11:07;;;;;;;2.17;1.10;;;17.50;99.90;;;;;;4988562;28;20277;-81
2022/10/23 09:13:51;;;;;;;2.03;1.10;;;17.50;99.90;;;;;;4976671;28;20030;-81
2022/10/23 09:16:54;;;;;;;2.30;1.20;;;17.60;99.90;;;;;;4970303;28;20133;-81
2022/10/23 09:19:26;;;;;;;1.65;1.10;;;17.60;99.90;;;;;;4985851;28;20092;-81
2022/10/23 09:21:54;;;;;;;2.10;1.17;;;17.60;99.90;;;;;;4967327;28;20469;-81
2022/10/23 09:24:22;;;;;;;1.80;1.10;;;17.70;99.90;;;;;;4964050;28;20049;-81
2022/10/23 09:26:50;;;;;;;1.90;1.20;;;17.70;99.90;;;;;;4988892;28;20036;-78
2022/10/23 09:29:34;;;;;;;2.25;1.33;;;17.80;99.90;;;;;;4979136;28;20468;-77
2022/10/23 09:32:03;;;;;;;1.77;1.08;;;17.80;99.90;;;;;;4975340;28;20549;-80
2022/10/23 09:34:31;;;;;;;1.85;1.20;;;17.90;99.90;;;;;;4994654;28;20175;-81
2022/10/23 09:37:26;;;;;;;1.97;0.97;;;17.90;99.90;;;;;;4961274;28;20082;-80
2022/10/23 09:40:21;;;;;;;2.08;0.95;;;17.90;99.90;;;;;;4985591;28;20018;-80
2022/10/23 09:42:53;;;;;;;3.15;1.25;;;18.00;99.90;;;;;;4994599;28;20454;-81
2022/10/23 09:45:33;;;;;;;2.10;0.90;;;18.00;99.90;;;;;;4955472;28;20069;-80
2022/10/23 09:48:13;;;;;;;1.42;1.00;;;18.10;99.90;;;;;;4938817;28;20155;-81
2022/10/23 09:50:46;;;;;;;3.37;1.10;;;18.10;99.90;;;;;;4957888;28;20046;-80
2022/10/23 09:53:45;;;;;;;2.95;1.40;;;18.10;99.90;;;;;;4972308;28;20294;-80
2022/10/23 09:56:33;;;;;;;2.47;1.15;;;18.20;99.90;;;;;;4999144;28;20033;-80
2022/10/23 09:59:03;;;;;;;1.85;1.15;;;18.30;99.90;;;;;;4982431;28;20052;-80
2022/10/23 10:01:32;;;;;;;2.08;1.10;;;18.30;99.90;;;;;;4984884;28;20045;-80
2022/10/23 10:03:58;;;;;;;2.33;1.30;;;18.40;99.90;;;;;;4961825;28;20129;-80
2022/10/23 10:06:30;;;;;;;2.95;1.40;;;18.50;99.90;;;;;;4983429;28;20557;-80
2022/10/23 10:08:58;;;;;;;2.75;1.08;;;18.60;99.90;;;;;;4962776;28;20030;-80
2022/10/23 10:11:40;;;;;;;2.67;1.05;;;18.70;99.90;;;;;;4994741;28;20040;-80
2022/10/23 10:14:33;;;;;;;2.00;1.00;;;18.70;99.90;;;;;;4978579;28;22973;-80
2022/10/23 10:17:12;;;;;;;1.80;1.20;;;18.90;99.90;;;;;;4980614;28;20064;-80
2022/10/23 10:19:57;;;;;;;2.80;1.20;;;18.90;99.90;;;;;;4986690;28;20733;-80
2022/10/23 10:22:38;;;;;;;1.90;1.20;;;19.00;99.90;;;;;;4982495;28;20038;-80
2022/10/23 10:25:22;;;;;;;2.17;1.40;;;19.10;99.90;;;;;;4982021;28;20329;-80
2022/10/23 10:28:00;;;;;;;2.22;1.13;;;19.20;99.90;;;;;;4973378;28;20038;-80
2022/10/23 10:30:33;;;;;;;2.43;1.20;;;19.30;99.90;;;;;;4975750;28;20522;-80
2022/10/23 10:33:25;;;;;;;2.85;1.15;;;19.40;99.90;;;;;;4960399;28;20599;-79
2022/10/23 10:36:12;;;;;;;2.78;1.23;;;19.50;99.90;;;;;;4976351;28;20081;-77
2022/10/23 10:38:50;;;;;;;1.65;1.20;;;19.60;99.90;;;;;;4966658;28;20238;-77
2022/10/23 10:41:31;;;;;;;3.08;1.50;;;19.70;99.90;;;;;;4979029;28;20019;-77
2022/10/23 10:44:02;;;;;;;4.47;1.30;;;19.80;99.90;;;;;;4998348;28;20099;-77
2022/10/23 10:46:41;;;;;;;3.30;1.50;;;19.90;99.90;;;;;;4980326;28;20160;-77
2022/10/23 10:49:25;;;;;;;2.67;1.40;;;19.90;99.90;;;;;;4956335;28;20073;-77
2022/10/23 10:52:03;;;;;;;2.05;1.27;;;20.00;99.90;;;;;;4975210;28;20022;-76
2022/10/23 10:54:42;;;;;;;2.92;1.55;;;20.10;99.90;;;;;;4961889;28;20697;-77
2022/10/23 10:57:23;;;;;;;2.60;1.10;;;20.20;99.90;;;;;;4980850;28;20034;-77
2022/10/23 10:59:51;;;;;;;3.22;1.45;;;20.20;99.90;;;;;;4991217;28;20080;-77
2022/10/23 11:02:23;;;;;;;2.00;1.40;;;20.30;99.90;;;;;;4971767;28;20080;-77
2022/10/23 11:05:21;;;;;;;3.55;1.20;;;20.40;99.90;;;;;;4949785;28;20040;-77
2022/10/23 11:08:06;;;;;;;2.38;1.33;;;20.40;99.90;;;;;;4949117;28;20042;-77
2022/10/23 11:10:34;;;;;;;2.73;1.20;;;20.50;99.90;;;;;;4997375;28;20041;-77
2022/10/23 11:13:01;;;;;;;2.20;1.42;;;20.60;99.90;;;;;;4968875;28;20034;-77
2022/10/23 11:15:41;;;;;;;2.35;1.50;;;20.60;99.90;;;;;;4992509;28;20028;-77
2022/10/23 11:18:22;;;;;;;2.30;1.30;;;20.70;99.90;;;;;;4978522;28;20156;-77
2022/10/23 11:21:33;;;;;;;2.08;1.40;;;20.70;99.90;;;;;;4963571;28;20046;-78
2022/10/23 11:24:22;;;;;;;3.07;1.30;;;20.80;99.90;;;;;;4965349;28;20556;-77
2022/10/23 11:27:04;;;;;;;2.50;1.50;;;20.80;99.90;;;;;;4990312;28;20068;-78
2022/10/23 11:29:56;;;;;;;2.15;1.27;;;20.80;99.80;;;;;;4971604;28;20033;-77
2022/10/23 11:32:31;;;;;;;2.15;1.30;;;20.80;99.90;;;;;;4987304;28;20030;-77
2022/10/23 11:35:26;;;;;;;2.03;1.40;;;20.80;99.70;;;;;;4954195;28;20038;-77
2022/10/23 11:38:15;;;;;;;3.23;1.40;;;20.80;99.20;;;;;;4972450;28;20025;-78
2022/10/23 11:40:49;;;;;;;2.85;1.33;;;20.90;99.40;;;;;;4972340;28;20034;-77
2022/10/23 11:43:29;;;;;;;1.90;1.38;;;20.90;99.80;;;;;;4984075;28;20036;-76
2022/10/23 11:45:55;;;;;;;3.78;1.38;;;20.90;99.50;;;;;;4969019;28;20030;-78
2022/10/23 11:48:34;;;;;;;2.70;1.57;;;21.00;99.90;;;;;;4963885;28;20038;-77
2022/10/23 11:51:02;;;;;;;2.00;1.23;;;21.10;99.90;;;;;;4967590;28;20040;-77
2022/10/23 11:53:30;;;;;;;1.67;1.20;;;21.10;99.90;;;;;;4977542;28;20212;-78
2022/10/23 11:56:18;;;;;;;2.75;1.50;;;21.20;99.90;;;;;;4973174;28;20100;-77
2022/10/23 11:58:56;;;;;;;3.47;1.30;;;21.30;99.00;;;;;;4991647;28;20616;-79
2022/10/23 12:01:43;;;;;;;3.13;1.50;;;21.40;99.90;;;;;;4961646;28;20061;-77
2022/10/23 12:04:14;;;;;;;2.92;1.50;;;21.50;99.30;;;;;;4976227;28;20522;-79
2022/10/23 12:06:54;;;;;;;2.05;1.40;;;21.60;99.80;;;;;;4957818;28;20992;-78
2022/10/23 12:09:39;;;;;;;2.35;1.30;;;21.70;99.10;;;;;;4973120;28;20665;-77
2022/10/23 12:12:08;;;;;;;2.85;1.20;;;21.80;99.30;;;;;;4968779;28;20223;-79
2022/10/23 12:14:39;;;;;;;2.67;1.40;;;21.90;99.80;;;;;;4971925;28;20465;-77
2022/10/23 12:17:23;;;;;;;3.63;1.48;;;22.00;99.90;;;;;;4983504;28;20486;-79
2022/10/23 12:20:13;;;;;;;2.15;1.40;;;22.10;98.50;;;;;;4960483;28;20033;-77
2022/10/23 12:22:44;;;;;;;4.38;1.50;;;22.20;99.80;;;;;;4960950;28;20038;-79
2022/10/23 12:25:44;;;;;;;2.40;1.70;;;22.30;99.90;;;;;;4995688;28;20104;-78
2022/10/23 12:28:37;;;;;;;2.53;1.50;;;22.40;97.70;;;;;;4980914;28;20033;-77
2022/10/23 12:31:21;;;;;;;2.00;1.23;;;22.40;98.60;;;;;;4990431;28;20087;-77
2022/10/23 12:34:04;;;;;;;2.95;1.40;;;22.40;99.20;;;;;;4995249;28;20046;-77
2022/10/23 12:37:07;;;;;;;2.80;1.33;;;22.50;98.10;;;;;;4976038;28;20026;-78
2022/10/23 12:39:36;;;;;;;2.65;1.20;;;22.50;97.90;;;;;;4963122;28;20358;-78
2022/10/23 12:42:03;;;;;;;3.13;1.33;;;22.50;98.70;;;;;;4990729;28;20021;-77
2022/10/23 12:44:29;;;;;;;5.03;1.23;;;22.50;98.50;;;;;;4961982;28;20045;-81
2022/10/23 12:47:00;;;;;;;2.22;1.38;;;22.50;98.40;;;;;;4993055;28;20149;-81
2022/10/23 12:49:33;;;;;;;2.20;1.20;;;22.50;98.10;;;;;;4978030;28;20034;-80
2022/10/23 12:52:18;;;;;;;2.67;1.10;;;22.50;98.10;;;;;;4983364;28;20472;-78
2022/10/23 12:54:44;;;;;;;1.87;1.30;;;22.60;97.10;;;;;;4964681;28;20546;-81
2022/10/23 12:57:22;;;;;;;2.00;1.20;;;22.60;98.40;;;;;;4989187;28;20376;-80
2022/10/23 12:59:50;;;;;;;2.83;1.40;;;22.70;97.10;;;;;;4968300;28;20068;-81
2022/10/23 13:02:19;;;;;;;2.90;1.40;;;22.70;98.20;;;;;;4986621;28;20015;-81
2022/10/23 13:04:44;;;;;;;2.30;1.17;;;22.80;98.00;;;;;;4969924;28;20054;-80
2022/10/23 13:07:10;;;;;;;2.45;1.33;;;22.90;98.60;;;;;;4971316;28;20211;-79
2022/10/23 13:09:41;;;;;;;1.75;1.23;;;23.00;98.70;;;;;;4941832;28;20066;-81
2022/10/23 13:12:14;;;;;;;2.67;1.40;;;23.10;98.10;;;;;;4975116;28;20026;-80